createdAt,value
2023-03-14T00:00:25.481Z,97360.81
2023-03-14T00:03:11.576Z,97342.88
2023-03-14T00:06:02.410Z,97372.81
2023-03-14T00:08:48.800Z,97389.19
2023-03-14T00:11:35.959Z,97385.91
2023-03-14T00:14:22.061Z,97373.78
2023-03-14T00:17:08.763Z,97358.28
2023-03-14T00:19:55.100Z,97365.22
2023-03-14T00:22:42.327Z,97375.34
2023-03-14T00:25:28.998Z,97331.00
2023-03-14T00:28:15.393Z,97360.78
2023-03-14T00:31:07.210Z,97385.81
2023-03-14T00:33:55.220Z,97352.75
2023-03-14T00:36:41.537Z,97383.28
2023-03-14T00:39:27.984Z,97363.91
2023-03-14T00:42:15.074Z,97347.78
2023-03-14T00:45:01.344Z,97341.13
2023-03-14T00:47:47.927Z,97363.91
2023-03-14T00:50:34.555Z,97357.38
2023-03-14T00:53:20.830Z,97388.88
2023-03-14T00:56:10.789Z,97400.03
2023-03-14T00:58:57.588Z,97364.25
2023-03-14T01:01:44.656Z,97414.41
2023-03-14T01:04:32.522Z,97400.09
2023-03-14T01:07:22.072Z,97413.44
2023-03-14T01:10:09.367Z,97379.31
2023-03-14T01:12:57.390Z,97408.22
2023-03-14T01:15:43.587Z,97370.63
2023-03-14T01:18:31.148Z,97362.78
2023-03-14T01:21:22.757Z,97380.59
2023-03-14T01:24:12.133Z,97387.81
2023-03-14T01:26:58.597Z,97376.59
2023-03-14T01:29:48.168Z,97352.38
2023-03-14T01:32:35.768Z,97367.34
2023-03-14T01:35:22.054Z,97310.09
2023-03-14T01:38:08.335Z,97315.34
2023-03-14T01:40:55.182Z,97299.13
2023-03-14T01:43:41.400Z,97265.22
2023-03-14T01:46:34.156Z,97306.94
2023-03-14T01:49:27.508Z,97286.53
2023-03-14T01:52:34.000Z,97273.53
2023-03-14T01:55:24.411Z,97275.09
2023-03-14T01:58:11.111Z,97281.44
2023-03-14T02:00:59.715Z,97282.72
2023-03-14T02:03:58.610Z,97280.31
2023-03-14T02:06:53.902Z,97275.94
2023-03-14T02:09:44.046Z,97303.63
2023-03-14T02:12:36.256Z,97292.06
2023-03-14T02:15:48.773Z,97274.28
2023-03-14T02:19:06.432Z,97266.66
2023-03-14T02:22:14.609Z,97292.84
2023-03-14T02:25:17.541Z,97285.03
2023-03-14T02:28:04.949Z,97274.78
2023-03-14T02:30:54.371Z,97246.91
2023-03-14T02:33:41.273Z,97243.22
2023-03-14T02:36:28.665Z,97240.84
2023-03-14T02:39:28.743Z,97259.03
2023-03-14T02:42:16.289Z,97256.91
2023-03-14T02:45:09.490Z,97250.06
2023-03-14T02:48:05.962Z,97182.84
2023-03-14T02:50:57.303Z,97226.66
2023-03-14T02:53:44.142Z,97191.22
2023-03-14T02:56:32.763Z,97209.78
2023-03-14T02:59:21.067Z,97185.88
2023-03-14T03:02:15.162Z,97195.19
2023-03-14T03:05:01.716Z,97180.53
2023-03-14T03:07:48.236Z,97171.13
2023-03-14T03:10:35.088Z,97151.09
2023-03-14T03:13:22.063Z,97163.03
2023-03-14T03:16:14.830Z,97174.97
2023-03-14T03:19:01.717Z,97182.84
2023-03-14T03:21:49.284Z,97182.53
2023-03-14T03:24:35.995Z,97147.13
2023-03-14T03:27:22.532Z,97179.28
2023-03-14T03:30:09.968Z,97174.84
2023-03-14T03:32:56.595Z,97159.97
2023-03-14T03:35:48.159Z,97160.09
2023-03-14T03:38:37.452Z,97126.63
2023-03-14T03:41:25.109Z,97177.06
2023-03-14T03:44:13.632Z,97111.97
2023-03-14T03:47:00.769Z,97146.00
2023-03-14T03:49:47.017Z,97138.91
2023-03-14T03:52:33.546Z,97129.91
2023-03-14T03:55:20.010Z,97121.25
2023-03-14T03:58:07.492Z,97133.97
2023-03-14T04:00:53.757Z,97149.38
2023-03-14T04:03:40.352Z,97145.16
2023-03-14T04:06:27.401Z,97130.03
2023-03-14T04:09:17.694Z,97141.16
2023-03-14T04:12:08.049Z,97150.81
2023-03-14T04:15:08.953Z,97153.09
2023-03-14T04:18:00.065Z,97147.94
2023-03-14T04:20:46.891Z,97138.84
2023-03-14T04:23:34.418Z,97121.75
2023-03-14T04:26:21.796Z,97145.00
2023-03-14T04:29:08.603Z,97138.59
2023-03-14T04:31:55.069Z,97128.03
2023-03-14T04:34:42.307Z,97108.47
2023-03-14T04:37:28.699Z,97118.41
2023-03-14T04:40:18.596Z,97138.59
2023-03-14T04:43:05.532Z,97107.22
2023-03-14T04:45:55.896Z,97108.19
2023-03-14T04:48:42.553Z,97100.78
2023-03-14T04:51:29.213Z,97106.97
2023-03-14T04:54:15.676Z,97106.31
2023-03-14T04:57:02.054Z,97119.66
2023-03-14T04:59:51.931Z,97101.91
2023-03-14T05:02:57.206Z,97094.25
2023-03-14T05:06:05.551Z,97094.53
2023-03-14T05:09:08.445Z,97098.31
2023-03-14T05:12:13.817Z,97079.69
2023-03-14T05:15:32.230Z,97033.56
2023-03-14T05:18:38.502Z,97068.44
2023-03-14T05:21:43.115Z,97083.25
2023-03-14T05:24:52.625Z,97094.56
2023-03-14T05:27:56.834Z,97064.16
2023-03-14T05:31:01.205Z,97088.84
2023-03-14T05:34:07.431Z,97081.84
2023-03-14T05:37:00.216Z,97047.66
2023-03-14T05:40:15.006Z,97016.84
2023-03-14T05:43:20.139Z,97084.53
2023-03-14T05:46:41.663Z,97083.34
2023-03-14T05:49:54.064Z,97053.56
2023-03-14T05:52:59.300Z,97074.28
2023-03-14T05:56:04.654Z,97053.84
2023-03-14T05:59:11.461Z,97073.50
2023-03-14T06:02:04.067Z,97091.91
2023-03-14T06:05:00.443Z,97037.63
2023-03-14T06:07:47.129Z,97082.06
2023-03-14T06:10:36.432Z,97049.91
2023-03-14T06:13:23.360Z,97087.28
2023-03-14T06:16:10.077Z,97084.22
2023-03-14T06:18:56.657Z,97079.06
2023-03-14T06:21:44.021Z,97071.91
2023-03-14T06:24:30.854Z,97063.59
2023-03-14T06:27:17.783Z,97052.69
2023-03-14T06:30:05.777Z,97085.38
2023-03-14T06:32:53.197Z,97060.25
2023-03-14T06:35:41.692Z,97066.69
2023-03-14T06:38:28.615Z,97029.97
2023-03-14T06:41:16.711Z,97055.84
2023-03-14T06:44:05.596Z,97058.25
2023-03-14T06:46:53.020Z,97037.94
2023-03-14T06:49:39.734Z,97039.72
2023-03-14T06:52:28.231Z,97038.53
2023-03-14T06:55:16.432Z,97031.03
2023-03-14T06:58:03.939Z,97024.31
2023-03-14T07:00:55.585Z,97068.72
2023-03-14T07:03:46.155Z,97055.47
2023-03-14T07:06:34.474Z,97080.63
2023-03-14T07:09:21.165Z,97077.94
2023-03-14T07:12:12.812Z,97081.53
2023-03-14T07:15:11.875Z,97076.22
2023-03-14T07:18:03.894Z,97086.31
2023-03-14T07:20:51.694Z,97023.63
2023-03-14T07:23:39.705Z,97062.84
2023-03-14T07:26:27.103Z,97080.44
2023-03-14T07:29:14.087Z,97042.19
2023-03-14T07:32:01.246Z,97065.78
2023-03-14T07:34:48.945Z,97082.41
2023-03-14T07:37:35.614Z,97081.28
2023-03-14T07:40:23.632Z,97063.44
2023-03-14T07:43:10.483Z,97097.50
2023-03-14T07:46:08.204Z,97087.00
2023-03-14T07:48:55.017Z,97100.28
2023-03-14T07:51:41.527Z,97064.56
2023-03-14T07:54:27.831Z,97052.78
2023-03-14T07:57:14.252Z,97093.06
2023-03-14T08:00:00.428Z,97094.22
2023-03-14T08:02:46.851Z,97094.91
2023-03-14T08:05:37.796Z,97096.25
2023-03-14T08:08:24.182Z,97093.31
2023-03-14T08:11:10.736Z,97057.59
2023-03-14T08:13:57.301Z,97069.22
2023-03-14T08:16:43.818Z,97084.28
2023-03-14T08:19:29.999Z,97064.31
2023-03-14T08:22:18.532Z,97074.72
2023-03-14T08:25:10.238Z,97075.03
2023-03-14T08:27:57.214Z,97080.88
2023-03-14T08:30:46.784Z,97066.41
2023-03-14T08:33:33.631Z,97041.91
2023-03-14T08:36:23.834Z,97067.16
2023-03-14T08:39:10.707Z,97046.16
2023-03-14T08:41:57.301Z,97028.97
2023-03-14T08:44:43.630Z,97078.34
2023-03-14T08:47:31.132Z,97064.47
2023-03-14T08:50:17.826Z,97073.72
2023-03-14T08:53:04.118Z,97028.63
2023-03-14T08:55:55.416Z,97093.84
2023-03-14T08:58:42.348Z,97075.97
2023-03-14T09:01:28.888Z,97092.16
2023-03-14T09:04:15.397Z,97130.59
2023-03-14T09:07:01.758Z,97126.44
2023-03-14T09:09:48.166Z,97117.13
2023-03-14T09:12:34.633Z,97141.09
2023-03-14T09:15:21.097Z,97127.03
2023-03-14T09:18:07.464Z,97104.84
2023-03-14T09:20:53.671Z,97142.72
2023-03-14T09:23:39.970Z,97154.84
2023-03-14T09:26:26.159Z,97139.94
2023-03-14T09:29:13.854Z,97134.44
2023-03-14T09:32:01.148Z,97157.66
2023-03-14T09:34:47.823Z,97171.06
2023-03-14T09:37:34.573Z,97178.19
2023-03-14T09:40:25.018Z,97165.50
2023-03-14T09:43:16.506Z,97154.31
2023-03-14T09:46:04.052Z,97173.91
2023-03-14T09:48:50.231Z,97176.34
2023-03-14T09:51:37.483Z,97150.78
2023-03-14T09:54:39.805Z,97170.19
2023-03-14T09:57:27.078Z,97171.75
2023-03-14T10:00:33.156Z,97169.63
2023-03-14T10:03:27.332Z,97117.75
2023-03-14T10:06:17.085Z,97140.81
2023-03-14T10:09:04.353Z,97121.28
2023-03-14T10:11:51.104Z,97146.13
2023-03-14T10:14:44.960Z,97145.75
2023-03-14T10:17:49.255Z,97123.75
2023-03-14T10:20:43.445Z,97023.00
2023-03-14T10:23:32.881Z,97131.06
2023-03-14T10:26:25.410Z,97160.97
2023-03-14T10:29:14.128Z,97141.38
2023-03-14T10:32:05.217Z,97163.19
2023-03-14T10:35:20.349Z,97164.00
2023-03-14T10:38:15.789Z,97170.03
2023-03-14T10:41:04.069Z,97179.94
2023-03-14T10:43:57.280Z,97176.94
2023-03-14T10:46:43.901Z,97169.44
2023-03-14T10:49:46.663Z,97170.06
2023-03-14T10:52:57.479Z,97184.50
2023-03-14T10:55:43.123Z,97204.09
2023-03-14T10:58:33.130Z,97108.72
2023-03-14T11:01:35.277Z,97205.00
2023-03-14T11:04:27.096Z,97144.03
2023-03-14T11:07:25.539Z,97212.66
2023-03-14T11:10:30.017Z,97177.50
2023-03-14T11:13:39.049Z,97200.31
2023-03-14T11:16:44.360Z,97208.94
2023-03-14T11:19:57.033Z,97216.16
2023-03-14T11:23:21.805Z,97206.91
2023-03-14T11:26:26.995Z,97198.41
2023-03-14T11:29:22.087Z,97211.16
2023-03-14T11:32:38.063Z,97218.94
2023-03-14T11:35:42.866Z,97212.41
2023-03-14T11:38:49.664Z,97217.47
2023-03-14T11:41:41.881Z,97223.84
2023-03-14T11:44:41.264Z,97220.50
2023-03-14T11:47:33.107Z,97221.53
2023-03-14T11:50:28.078Z,97258.03
2023-03-14T11:53:19.192Z,97232.97
2023-03-14T11:56:17.728Z,97254.28
2023-03-14T11:59:10.501Z,97276.00
2023-03-14T12:02:14.252Z,97258.56
2023-03-14T12:05:18.775Z,97279.16
2023-03-14T12:08:08.588Z,97289.41
2023-03-14T12:11:13.004Z,97281.28
2023-03-14T12:14:01.119Z,97271.44
2023-03-14T12:16:51.183Z,97327.34
2023-03-14T12:19:40.365Z,97342.69
2023-03-14T12:22:43.114Z,97362.59
2023-03-14T12:25:32.910Z,97361.63
2023-03-14T12:28:21.909Z,97380.81
2023-03-14T12:31:30.601Z,97405.53
2023-03-14T12:34:16.870Z,97408.41
2023-03-14T12:37:07.140Z,97398.50
2023-03-14T12:39:56.756Z,97421.34
2023-03-14T12:42:59.981Z,97408.06
2023-03-14T12:46:15.642Z,97404.56
2023-03-14T12:49:05.777Z,97414.84
2023-03-14T12:52:01.029Z,97432.75
2023-03-14T12:54:59.775Z,97400.84
2023-03-14T12:58:04.172Z,97418.72
2023-03-14T13:01:00.729Z,97458.94
2023-03-14T13:03:59.272Z,97441.44
2023-03-14T13:06:59.841Z,97445.22
2023-03-14T13:10:18.933Z,97481.53
2023-03-14T13:13:14.445Z,97484.38
2023-03-14T13:16:04.775Z,97503.63
2023-03-14T13:19:01.867Z,97506.09
2023-03-14T13:21:48.496Z,97499.09
2023-03-14T13:24:35.680Z,97538.91
2023-03-14T13:27:22.225Z,97530.69
2023-03-14T13:30:27.639Z,97556.47
2023-03-14T13:33:22.665Z,97550.63
2023-03-14T13:36:10.704Z,97574.06
2023-03-14T13:39:03.625Z,97579.91
2023-03-14T13:41:49.836Z,97560.88
2023-03-14T13:44:39.604Z,97568.41
2023-03-14T13:47:27.347Z,97628.25
2023-03-14T13:50:18.643Z,97596.09
2023-03-14T13:53:04.882Z,97601.16
2023-03-14T13:55:52.493Z,97645.00
2023-03-14T13:58:40.693Z,97622.97
2023-03-14T14:01:36.141Z,97636.72
2023-03-14T14:04:26.295Z,97670.94
2023-03-14T14:07:19.424Z,97679.38
2023-03-14T14:10:07.363Z,97672.81
2023-03-14T14:13:04.781Z,97687.56
2023-03-14T14:15:54.125Z,97709.91
2023-03-14T14:18:40.565Z,97691.16
2023-03-14T14:21:27.499Z,97702.97
2023-03-14T14:24:15.808Z,97732.31
2023-03-14T14:27:11.501Z,97669.22
2023-03-14T14:30:05.886Z,97737.59
2023-03-14T14:32:52.842Z,97729.19
2023-03-14T14:35:39.303Z,97748.56
2023-03-14T14:38:26.219Z,97746.91
2023-03-14T14:41:13.288Z,97737.47
2023-03-14T14:44:00.593Z,97760.56
2023-03-14T14:46:48.704Z,97772.34
2023-03-14T14:49:35.483Z,97763.22
2023-03-14T14:52:34.608Z,97765.34
2023-03-14T14:55:21.300Z,97735.41
2023-03-14T14:58:30.092Z,97674.59
2023-03-14T15:01:24.980Z,97778.34
2023-03-14T15:04:14.804Z,97775.97
2023-03-14T15:07:01.644Z,97795.41
2023-03-14T15:09:47.927Z,97805.78
2023-03-14T15:12:34.590Z,97802.13
2023-03-14T15:15:21.512Z,97811.03
2023-03-14T15:18:19.458Z,97820.00
2023-03-14T15:21:06.148Z,97778.25
2023-03-14T15:23:53.001Z,97791.88
2023-03-14T15:26:39.648Z,97818.47
2023-03-14T15:29:26.112Z,97849.31
2023-03-14T15:32:14.605Z,97851.00
2023-03-14T15:35:01.017Z,97862.03
2023-03-14T15:37:47.601Z,97854.56
2023-03-14T15:40:33.910Z,97857.25
2023-03-14T15:43:20.773Z,97813.06
2023-03-14T15:46:10.536Z,97846.56
2023-03-14T15:48:57.249Z,97839.06
2023-03-14T15:51:43.867Z,97871.50
2023-03-14T15:54:30.189Z,97855.22
2023-03-14T15:57:16.447Z,97878.25
2023-03-14T16:00:05.347Z,97887.69
2023-03-14T16:02:51.832Z,97880.03
2023-03-14T16:05:38.185Z,97857.13
2023-03-14T16:08:26.746Z,97897.34
2023-03-14T16:11:15.765Z,97865.88
2023-03-14T16:14:02.075Z,97899.19
2023-03-14T16:16:48.222Z,97891.56
2023-03-14T16:19:34.920Z,97896.72
2023-03-14T16:22:21.463Z,97882.19
2023-03-14T16:25:08.344Z,97902.81
2023-03-14T16:28:09.995Z,97932.72
2023-03-14T16:31:08.731Z,97937.16
2023-03-14T16:33:55.419Z,97924.56
2023-03-14T16:36:41.736Z,97929.88
2023-03-14T16:39:29.341Z,97959.94
2023-03-14T16:42:16.473Z,97962.66
2023-03-14T16:45:02.770Z,97985.94
2023-03-14T16:47:48.960Z,97973.25
2023-03-14T16:50:35.327Z,97981.94
2023-03-14T16:53:22.350Z,98024.91
2023-03-14T16:56:08.926Z,98014.72
2023-03-14T16:58:55.472Z,98033.69
2023-03-14T17:01:43.883Z,98006.34
2023-03-14T17:04:30.845Z,97984.97
2023-03-14T17:07:17.712Z,98006.38
2023-03-14T17:10:04.247Z,97960.16
2023-03-14T17:12:50.367Z,98014.94
2023-03-14T17:15:36.910Z,98033.78
2023-03-14T17:18:24.302Z,98056.06
2023-03-14T17:21:10.734Z,97991.84
2023-03-14T17:23:57.061Z,98044.06
2023-03-14T17:26:43.433Z,98026.06
2023-03-14T17:29:29.664Z,98061.16
2023-03-14T17:32:17.051Z,98090.28
2023-03-14T17:35:04.009Z,98034.59
2023-03-14T17:37:50.358Z,98068.03
2023-03-14T17:40:36.627Z,98090.28
2023-03-14T17:43:22.980Z,98091.16
2023-03-14T17:46:14.271Z,98119.41
2023-03-14T17:49:00.724Z,98090.28
2023-03-14T17:51:47.163Z,98117.69
2023-03-14T17:54:33.793Z,98091.97
2023-03-14T17:57:20.212Z,98093.69
2023-03-14T18:00:11.437Z,98134.78
2023-03-14T18:02:59.259Z,98132.22
2023-03-14T18:05:45.642Z,98141.59
2023-03-14T18:08:32.185Z,98133.88
2023-03-14T18:11:18.719Z,98077.25
2023-03-14T18:14:07.780Z,98133.81
2023-03-14T18:16:54.275Z,98144.13
2023-03-14T18:19:41.427Z,98111.50
2023-03-14T18:22:27.656Z,98135.50
2023-03-14T18:25:13.912Z,98129.47
2023-03-14T18:27:59.878Z,98147.47
2023-03-14T18:30:52.145Z,98159.44
2023-03-14T18:33:41.918Z,98137.13
2023-03-14T18:36:28.596Z,98120.00
2023-03-14T18:39:14.790Z,98144.88
2023-03-14T18:42:01.503Z,98160.31
2023-03-14T18:44:47.737Z,98162.00
2023-03-14T18:47:36.596Z,98174.00
2023-03-14T18:50:22.933Z,98157.75
2023-03-14T18:53:09.749Z,98156.00
2023-03-14T18:55:56.243Z,98191.13
2023-03-14T18:58:42.802Z,98163.66
2023-03-14T19:01:31.393Z,98199.75
2023-03-14T19:04:18.600Z,98209.16
2023-03-14T19:07:05.003Z,98203.16
2023-03-14T19:09:51.809Z,98193.69
2023-03-14T19:12:38.197Z,98190.31
2023-03-14T19:15:24.596Z,98185.16
2023-03-14T19:18:11.333Z,98205.69
2023-03-14T19:21:03.673Z,98202.22
2023-03-14T19:23:50.024Z,98201.31
2023-03-14T19:26:38.136Z,98225.31
2023-03-14T19:29:24.668Z,98237.31
2023-03-14T19:32:11.504Z,98227.78
2023-03-14T19:34:57.778Z,98177.19
2023-03-14T19:37:45.472Z,98248.28
2023-03-14T19:40:32.344Z,98256.94
2023-03-14T19:43:18.972Z,98232.94
2023-03-14T19:46:05.887Z,98152.28
2023-03-14T19:48:54.274Z,98244.09
2023-03-14T19:51:41.339Z,98238.94
2023-03-14T19:54:27.724Z,98263.78
2023-03-14T19:57:14.298Z,98251.75
2023-03-14T20:00:00.771Z,98287.03
2023-03-14T20:02:49.257Z,98281.03
2023-03-14T20:05:39.463Z,98288.69
2023-03-14T20:08:25.900Z,98265.44
2023-03-14T20:11:12.720Z,98277.41
2023-03-14T20:13:59.249Z,98280.78
2023-03-14T20:16:45.552Z,98285.94
2023-03-14T20:19:32.211Z,98276.41
2023-03-14T20:22:18.352Z,98311.56
2023-03-14T20:25:18.550Z,98295.19
2023-03-14T20:28:05.186Z,98312.44
2023-03-14T20:30:52.181Z,98281.53
2023-03-14T20:33:38.566Z,98310.66
2023-03-14T20:36:24.953Z,98312.41
2023-03-14T20:39:14.146Z,98300.56
2023-03-14T20:42:00.739Z,98333.06
2023-03-14T20:44:47.540Z,98333.22
2023-03-14T20:47:35.110Z,98318.59
2023-03-14T20:50:21.513Z,98340.09
2023-03-14T20:53:08.022Z,98291.94
2023-03-14T20:55:56.264Z,98321.09
2023-03-14T20:58:45.517Z,98303.19
2023-03-14T21:01:32.058Z,98339.28
2023-03-14T21:04:18.756Z,98309.28
2023-03-14T21:07:05.397Z,98354.72
2023-03-14T21:09:52.054Z,98349.38
2023-03-14T21:12:39.201Z,98339.88
2023-03-14T21:15:25.678Z,98352.63
2023-03-14T21:18:12.345Z,98367.13
2023-03-14T21:20:58.717Z,98368.03
2023-03-14T21:23:45.348Z,98368.88
2023-03-14T21:26:32.536Z,98344.78
2023-03-14T21:29:19.738Z,98344.13
2023-03-14T21:32:06.505Z,98332.97
2023-03-14T21:34:53.611Z,98344.91
2023-03-14T21:37:40.471Z,98332.75
2023-03-14T21:40:27.094Z,98334.31
2023-03-14T21:43:15.608Z,98364.41
2023-03-14T21:46:02.148Z,98377.16
2023-03-14T21:48:48.452Z,98353.91
2023-03-14T21:51:35.808Z,98337.41
2023-03-14T21:54:22.374Z,98382.00
2023-03-14T21:57:09.597Z,98414.88
2023-03-14T21:59:56.121Z,98400.66
2023-03-14T22:02:53.762Z,98447.88
2023-03-14T22:05:52.196Z,98441.84
2023-03-14T22:08:38.647Z,98439.56
2023-03-14T22:11:25.235Z,98433.72
2023-03-14T22:14:11.836Z,98438.91
2023-03-14T22:16:59.991Z,98465.06
2023-03-14T22:19:46.826Z,98504.97
2023-03-14T22:22:33.549Z,98485.00
2023-03-14T22:25:19.719Z,98520.88
2023-03-14T22:28:06.105Z,98511.84
2023-03-14T22:30:52.568Z,98480.44
2023-03-14T22:33:39.167Z,98539.88
2023-03-14T22:36:25.673Z,98546.97
2023-03-14T22:39:12.057Z,98549.88
2023-03-14T22:41:59.982Z,98587.63
2023-03-14T22:44:46.220Z,98542.75
2023-03-14T22:47:32.704Z,98523.75
2023-03-14T22:50:18.997Z,98519.88
2023-03-14T22:53:05.303Z,98613.03
2023-03-14T22:55:59.183Z,98616.41
2023-03-14T22:58:45.989Z,98606.88
2023-03-14T23:01:32.665Z,98607.69
2023-03-14T23:04:19.482Z,98642.13
2023-03-14T23:07:06.095Z,98618.63
2023-03-14T23:09:53.319Z,98641.41
2023-03-14T23:12:39.732Z,98653.44
2023-03-14T23:15:26.891Z,98661.13
2023-03-14T23:18:16.249Z,98560.69
2023-03-14T23:21:06.771Z,98635.16
2023-03-14T23:23:53.285Z,98616.13
2023-03-14T23:26:39.426Z,98672.19
2023-03-14T23:29:25.961Z,98646.88
2023-03-14T23:32:12.156Z,98653.09
2023-03-14T23:34:58.358Z,98638.50
2023-03-14T23:37:44.601Z,98679.97
2023-03-14T23:40:31.047Z,98679.97
2023-03-14T23:43:17.255Z,98689.59
2023-03-14T23:46:03.659Z,98676.56
2023-03-14T23:48:50.125Z,98678.06
2023-03-14T23:51:36.386Z,98666.75
2023-03-14T23:54:22.663Z,98700.56
2023-03-14T23:57:10.050Z,98683.31
2023-03-14T23:59:56.469Z,98723.72
